Time;durP1;ratioP1;P1;durP2;ratioP2;P2;SDS_P1;SDS_P2;PMS_P1;PMS_P2;Temp;Humidity;BMP_temperature;BMP_pressure;BME280_temperature;BME280_humidity;BME280_pressure;Samples;Min_cycle;Max_cycle;Signal;HPM_P1;HPM_P2
2023/09/03 00:00:22;;;;;;;5.43;4.90;;;;;;;18.77;100.00;156186.66;4987717;28;20468;-86
2023/09/03 00:02:49;;;;;;;6.83;5.43;;;;;;;18.80;100.00;156194.44;4974010;28;20858;-86
2023/09/03 00:05:16;;;;;;;5.60;5.03;;;;;;;18.89;100.00;156216.59;4974882;28;20465;-85
2023/09/03 00:07:42;;;;;;;4.70;4.30;;;;;;;18.82;100.00;156200.94;4992530;28;20449;-85
2023/09/03 00:10:10;;;;;;;5.27;4.77;;;;;;;18.78;100.00;156190.53;4997893;28;20475;-85
2023/09/03 00:12:37;;;;;;;7.57;5.10;;;;;;;18.81;100.00;156197.06;4966132;28;20522;-85
2023/09/03 00:15:04;;;;;;;6.30;5.20;;;;;;;18.75;100.00;156181.41;4994937;28;20465;-86
2023/09/03 00:17:31;;;;;;;5.27;4.70;;;;;;;18.72;100.00;156174.91;5003273;28;20472;-85
2023/09/03 00:19:58;;;;;;;5.03;4.53;;;;;;;18.66;100.00;156158.00;4974445;28;20446;-86
2023/09/03 00:22:24;;;;;;;5.57;5.07;;;;;;;18.62;100.00;156147.53;4959331;28;20467;-86
2023/09/03 00:24:51;;;;;;;5.23;4.33;;;;;;;18.55;100.00;156130.63;5010390;28;20440;-85
2023/09/03 00:27:19;;;;;;;5.20;4.47;;;;;;;18.50;100.00;156117.59;4987416;28;20460;-85
2023/09/03 00:29:45;;;;;;;4.83;4.30;;;;;;;18.43;100.00;156097.97;4972729;28;20454;-85
2023/09/03 00:32:12;;;;;;;5.53;4.87;;;;;;;18.42;100.00;156095.41;4991174;28;20555;-85
2023/09/03 00:34:38;;;;;;;6.17;4.87;;;;;;;18.42;100.00;156095.41;4991174;28;20465;-85
2023/09/03 00:37:05;;;;;;;5.97;5.03;;;;;;;18.38;100.00;156086.28;4986328;28;20449;-85
2023/09/03 00:39:33;;;;;;;5.93;5.17;;;;;;;18.34;100.00;156075.88;4975487;28;20210;-85
2023/09/03 00:42:00;;;;;;;6.57;5.30;;;;;;;18.31;100.00;156068.06;4981411;28;20464;-86
2023/09/03 00:44:28;;;;;;;6.07;5.40;;;;;;;18.32;100.00;156069.38;4970635;28;20481;-86
2023/09/03 00:46:54;;;;;;;5.63;5.13;;;;;;;18.29;100.00;156062.84;4997532;28;20475;-86
2023/09/03 00:49:22;;;;;;;5.70;5.20;;;;;;;18.24;100.00;156051.09;4990719;28;20467;-86
2023/09/03 00:51:49;;;;;;;6.90;5.00;;;;;;;18.20;100.00;156040.69;4964087;28;20881;-86
2023/09/03 00:54:16;;;;;;;5.80;4.90;;;;;;;18.15;100.00;156027.69;4981150;28;20840;-87
2023/09/03 00:56:43;;;;;;;5.80;5.03;;;;;;;18.14;100.00;156025.06;4974925;28;20446;-85
2023/09/03 00:59:09;;;;;;;5.07;4.57;;;;;;;18.14;100.00;156025.06;4988565;28;20448;-86
2023/09/03 01:01:37;;;;;;;5.00;4.50;;;;;;;18.11;100.00;156017.25;4976433;28;20985;-86
2023/09/03 01:04:05;;;;;;;5.77;5.17;;;;;;;18.09;100.00;156010.72;4997593;28;20854;-86
2023/09/03 01:06:31;;;;;;;6.03;5.17;;;;;;;18.06;100.00;156002.91;4984253;28;20481;-86
2023/09/03 01:08:58;;;;;;;4.90;4.40;;;;;;;18.02;100.00;155993.81;4974551;28;20452;-86
2023/09/03 01:11:34;;;;;;;6.60;4.70;;;;;;;18.00;100.00;155987.31;4956979;28;20465;-86
2023/09/03 01:14:06;;;;;;;5.20;4.70;;;;;;;17.97;100.00;155980.81;4964818;28;20501;-85
2023/09/03 01:16:35;;;;;;;5.73;4.77;;;;;;;17.93;100.00;155970.38;4971825;28;20467;-86
2023/09/03 01:19:10;;;;;;;5.83;5.30;;;;;;;17.92;100.00;155967.78;4976249;28;20934;-85
2023/09/03 01:21:45;;;;;;;5.97;5.03;;;;;;;17.90;100.00;155962.56;4976222;28;20468;-85
2023/09/03 01:24:27;;;;;;;5.63;5.13;;;;;;;17.88;100.00;155957.34;4971962;28;20490;-86
2023/09/03 01:27:03;;;;;;;5.60;5.10;;;;;;;17.85;100.00;155949.53;4990713;28;20503;-85
2023/09/03 01:29:32;;;;;;;5.40;4.90;;;;;;;17.84;100.00;155946.97;5003006;28;20480;-85
2023/09/03 01:32:00;;;;;;;5.90;5.30;;;;;;;17.84;100.00;155946.97;5003642;28;20464;-85
2023/09/03 01:34:27;;;;;;;5.50;5.00;;;;;;;17.85;100.00;155948.22;4978654;28;20477;-85
2023/09/03 01:36:54;;;;;;;6.17;5.37;;;;;;;17.87;100.00;155954.72;4997580;28;20450;-85
2023/09/03 01:39:21;;;;;;;6.47;5.60;;;;;;;17.87;100.00;155953.47;4964281;28;20461;-85
2023/09/03 01:41:48;;;;;;;6.53;5.40;;;;;;;17.82;100.00;155941.72;4978968;28;20462;-86
2023/09/03 01:44:15;;;;;;;6.63;5.90;;;;;;;17.82;100.00;155940.44;4972428;28;20550;-85
2023/09/03 01:46:47;;;;;;;7.70;5.40;;;;;;;17.82;100.00;155941.72;4973511;28;20549;-85
2023/09/03 01:49:34;;;;;;;5.60;5.10;;;;;;;17.84;100.00;155946.97;4996157;28;20539;-85
2023/09/03 01:52:07;;;;;;;6.00;5.40;;;;;;;17.81;100.00;155939.16;4974362;28;20474;-85
2023/09/03 01:54:38;;;;;;;5.83;5.20;;;;;;;17.77;100.00;155927.38;4976654;28;20505;-85
2023/09/03 01:57:06;;;;;;;5.43;4.93;;;;;;;17.75;100.00;155922.19;4976410;28;20865;-85
2023/09/03 01:59:37;;;;;;;6.73;5.87;;;;;;;17.70;100.00;155910.50;4979661;28;20448;-85
2023/09/03 02:02:05;;;;;;;5.87;5.27;;;;;;;17.72;100.00;155914.38;4968823;28;20561;-85
2023/09/03 02:04:32;;;;;;;6.13;5.53;;;;;;;17.72;100.00;155915.69;4976495;28;20437;-85
2023/09/03 02:06:58;;;;;;;5.63;5.00;;;;;;;17.70;100.00;155910.50;4971700;28;20458;-85
2023/09/03 02:09:25;;;;;;;6.63;5.63;;;;;;;17.68;100.00;155905.28;4971906;28;20546;-85
2023/09/03 02:11:53;;;;;;;4.87;4.47;;;;;;;17.65;100.00;155897.47;4972027;28;20504;-85
2023/09/03 02:14:19;;;;;;;7.93;5.57;;;;;;;17.61;100.00;155887.03;4990436;28;20477;-85
2023/09/03 02:16:46;;;;;;;6.17;5.57;;;;;;;17.61;100.00;155888.34;4952857;28;20469;-85
2023/09/03 02:19:14;;;;;;;6.83;5.73;;;;;;;17.63;100.00;155892.28;5002388;28;20983;-85
2023/09/03 02:21:42;;;;;;;5.50;5.00;;;;;;;17.60;100.00;155885.78;4997545;28;20455;-85
2023/09/03 02:24:09;;;;;;;8.47;5.67;;;;;;;17.58;100.00;155879.22;5001885;28;20464;-85
2023/09/03 02:26:41;;;;;;;5.63;5.13;;;;;;;17.54;100.00;155870.16;4979300;28;20930;-85
2023/09/03 02:29:08;;;;;;;6.40;5.70;;;;;;;17.48;100.00;155853.16;4960651;28;20450;-84
2023/09/03 02:31:35;;;;;;;5.90;5.00;;;;;;;17.46;100.00;155847.94;4986411;28;20532;-85
2023/09/03 02:34:02;;;;;;;6.13;4.57;;;;;;;17.42;100.00;155837.56;4997405;28;20692;-85
2023/09/03 02:36:31;;;;;;;6.00;4.90;;;;;;;17.38;100.00;155828.44;4971951;28;20838;-85
2023/09/03 02:39:02;;;;;;;5.63;5.03;;;;;;;17.35;100.00;155819.31;4964692;28;20460;-85
2023/09/03 02:41:30;;;;;;;5.43;4.83;;;;;;;17.31;100.00;155808.91;4989631;28;20469;-84
2023/09/03 02:43:57;;;;;;;5.57;4.97;;;;;;;17.28;100.00;155801.09;4981448;28;20457;-85
2023/09/03 02:46:24;;;;;;;5.70;5.10;;;;;;;17.27;100.00;155798.47;4963087;28;20457;-85
2023/09/03 02:48:50;;;;;;;4.43;4.03;;;;;;;17.24;100.00;155790.66;4962646;28;20450;-85
2023/09/03 02:51:17;;;;;;;6.43;5.10;;;;;;;17.21;100.00;155782.91;4982593;28;20459;-85
2023/09/03 02:53:45;;;;;;;4.97;4.47;;;;;;;17.19;100.00;155777.66;4984419;28;20561;-85
2023/09/03 02:56:12;;;;;;;5.33;4.83;;;;;;;17.13;100.00;155763.34;4987388;28;20470;-85
2023/09/03 02:58:39;;;;;;;5.17;4.67;;;;;;;17.11;100.00;155756.84;4968768;28;20520;-84
2023/09/03 03:01:07;;;;;;;5.77;5.27;;;;;;;17.08;100.00;155749.06;4964871;28;20442;-85
2023/09/03 03:03:34;;;;;;;5.60;5.00;;;;;;;17.08;100.00;155749.06;4972223;28;20442;-84
2023/09/03 03:06:00;;;;;;;7.87;5.67;;;;;;;17.09;100.00;155752.94;4988346;28;20710;-84
2023/09/03 03:08:27;;;;;;;6.30;5.70;;;;;;;17.08;100.00;155750.34;4989488;28;21028;-85
2023/09/03 03:11:05;;;;;;;5.43;4.93;;;;;;;17.05;100.00;155743.81;4991019;28;20465;-84
2023/09/03 03:13:32;;;;;;;5.83;5.37;;;;;;;17.05;100.00;155742.53;4967887;28;20465;-76
2023/09/03 03:16:04;;;;;;;8.00;5.30;;;;;;;17.01;100.00;155732.13;4954946;28;20478;-76
2023/09/03 03:18:32;;;;;;;5.47;4.80;;;;;;;17.00;100.00;155729.50;4985456;28;20444;-76
2023/09/03 03:21:05;;;;;;;5.67;5.00;;;;;;;16.99;100.00;155726.94;4980422;28;20442;-75
2023/09/03 03:23:32;;;;;;;5.60;4.63;;;;;;;16.96;100.00;155720.44;4954226;28;20964;-75
2023/09/03 03:26:00;;;;;;;5.47;4.90;;;;;;;16.96;100.00;155719.13;4954459;28;20548;-75
2023/09/03 03:28:27;;;;;;;4.97;4.47;;;;;;;16.94;100.00;155715.19;4961069;28;20457;-75
2023/09/03 03:30:54;;;;;;;6.03;4.77;;;;;;;16.90;100.00;155704.81;4971401;28;20441;-76
2023/09/03 03:33:20;;;;;;;5.17;4.70;;;;;;;16.90;100.00;155704.81;4956432;28;20453;-75
2023/09/03 03:35:47;;;;;;;5.30;4.80;;;;;;;16.90;100.00;155703.50;4989033;28;20478;-76
2023/09/03 03:38:13;;;;;;;5.60;5.10;;;;;;;16.88;100.00;155699.63;4973152;28;20540;-75
2023/09/03 03:40:40;;;;;;;5.77;5.17;;;;;;;16.95;100.00;155716.50;4960168;28;20573;-75
2023/09/03 03:43:09;;;;;;;5.97;5.17;;;;;;;16.97;100.00;155723.00;4952787;28;20974;-75
2023/09/03 03:45:36;;;;;;;6.00;5.47;;;;;;;16.96;100.00;155720.44;4982355;28;20458;-75
2023/09/03 03:48:04;;;;;;;5.90;5.30;;;;;;;17.00;100.00;155729.50;4993240;28;20905;-75
2023/09/03 03:50:32;;;;;;;8.90;6.43;;;;;;;16.98;100.00;155724.31;4952322;28;20544;-74
2023/09/03 03:52:58;;;;;;;6.37;5.60;;;;;;;16.98;100.00;155725.63;4969415;28;21024;-74
2023/09/03 03:55:25;;;;;;;5.90;5.40;;;;;;;16.99;100.00;155728.25;4970830;28;20988;-74
2023/09/03 03:57:51;;;;;;;5.50;5.00;;;;;;;16.98;100.00;155725.63;4961759;28;20549;-75
2023/09/03 04:00:20;;;;;;;6.40;5.80;;;;;;;16.95;100.00;155717.81;4948142;28;20465;-74
2023/09/03 04:02:46;;;;;;;7.77;5.70;;;;;;;16.95;100.00;155716.50;4968458;28;20465;-75
2023/09/03 04:05:13;;;;;;;7.00;5.77;;;;;;;16.94;100.00;155713.94;4985598;28;20477;-75
2023/09/03 04:07:43;;;;;;;5.80;5.20;;;;;;;16.95;100.00;155716.50;4974750;28;20450;-75
2023/09/03 04:10:10;;;;;;;7.33;5.50;;;;;;;16.96;100.00;155720.44;4949403;28;20470;-75
2023/09/03 04:12:36;;;;;;;6.23;5.60;;;;;;;16.96;100.00;155719.13;4971069;28;20464;-75
2023/09/03 04:15:04;;;;;;;6.17;5.57;;;;;;;16.91;100.00;155707.44;4970381;28;20512;-74
2023/09/03 04:17:32;;;;;;;6.63;5.30;;;;;;;16.92;100.00;155708.69;4985212;28;20466;-74
2023/09/03 04:19:58;;;;;;;6.30;5.43;;;;;;;16.88;100.00;155699.63;4953310;28;21006;-74
2023/09/03 04:22:25;;;;;;;6.37;5.80;;;;;;;16.87;100.00;155695.69;4970215;28;20514;-75
2023/09/03 04:24:52;;;;;;;5.93;5.37;;;;;;;16.84;100.00;155689.19;4969054;28;20516;-75
2023/09/03 04:27:18;;;;;;;6.37;5.43;;;;;;;16.80;100.00;155677.47;4988769;28;20463;-75
2023/09/03 04:29:45;;;;;;;7.30;6.60;;;;;;;16.79;100.00;155676.19;4986956;28;20456;-74
2023/09/03 04:32:12;;;;;;;7.43;6.03;;;;;;;16.77;100.00;155670.97;4953408;28;20457;-75
2023/09/03 04:34:41;;;;;;;6.83;5.03;;;;;;;16.77;100.00;155670.97;4957620;28;20502;-74
2023/09/03 04:37:08;;;;;;;6.27;5.67;;;;;;;16.78;100.00;155673.59;4977016;28;20951;-74
2023/09/03 04:39:34;;;;;;;6.27;5.67;;;;;;;16.79;100.00;155676.19;4972805;28;20540;-75
2023/09/03 04:42:01;;;;;;;6.13;5.53;;;;;;;16.80;100.00;155678.78;4957327;28;20568;-75
2023/09/03 04:44:27;;;;;;;7.03;5.27;;;;;;;16.79;100.00;155676.19;4969847;28;20834;-75
2023/09/03 04:46:55;;;;;;;5.07;4.60;;;;;;;16.77;100.00;155670.97;4973151;28;20456;-75
2023/09/03 04:49:23;;;;;;;7.17;4.97;;;;;;;16.79;100.00;155676.19;4973165;28;20545;-75
2023/09/03 04:51:51;;;;;;;6.17;5.07;;;;;;;16.75;100.00;155664.47;4956729;28;20833;-74
2023/09/03 04:54:18;;;;;;;6.73;5.60;;;;;;;16.70;100.00;155652.78;4955626;28;20458;-75
2023/09/03 04:56:47;;;;;;;6.07;5.33;;;;;;;16.71;100.00;155655.34;4961728;28;20974;-75
2023/09/03 04:59:14;;;;;;;5.90;4.90;;;;;;;16.71;100.00;155655.34;4973496;28;20450;-75
2023/09/03 05:01:41;;;;;;;8.37;6.53;;;;;;;16.74;100.00;155663.16;4963936;28;20458;-75
2023/09/03 05:04:08;;;;;;;5.70;5.20;;;;;;;16.73;100.00;155660.53;4980250;28;20529;-75
2023/09/03 05:06:35;;;;;;;5.93;5.40;;;;;;;16.72;100.00;155657.97;4962047;28;20474;-74
2023/09/03 05:09:04;;;;;;;6.20;5.60;;;;;;;16.75;100.00;155665.78;4960507;28;20454;-74
2023/09/03 05:11:30;;;;;;;6.60;6.00;;;;;;;16.78;100.00;155673.59;4962532;28;20525;-74
2023/09/03 05:13:58;;;;;;;8.30;7.40;;;;;;;16.78;100.00;155673.59;4962027;28;20478;-75
2023/09/03 05:16:26;;;;;;;6.67;6.07;;;;;;;16.80;100.00;155677.47;4979339;28;20501;-76
2023/09/03 05:18:53;;;;;;;6.80;6.13;;;;;;;16.84;100.00;155689.19;4978922;28;20457;-75
2023/09/03 05:21:20;;;;;;;6.67;5.90;;;;;;;16.83;100.00;155686.59;4974791;28;20466;-75
2023/09/03 05:23:47;;;;;;;6.63;5.90;;;;;;;16.87;100.00;155697.00;4979558;28;20457;-75
2023/09/03 05:26:15;;;;;;;6.90;6.20;;;;;;;16.90;100.00;155703.50;4945374;28;20557;-75
2023/09/03 05:28:42;;;;;;;5.90;5.30;;;;;;;16.92;100.00;155710.00;4960323;28;20456;-75
2023/09/03 05:31:11;;;;;;;6.50;5.90;;;;;;;16.97;100.00;155723.00;4944273;28;21049;-75
2023/09/03 05:33:38;;;;;;;6.27;5.50;;;;;;;17.03;100.00;155738.63;4960198;28;20485;-73
2023/09/03 05:36:05;;;;;;;6.40;5.80;;;;;;;17.10;100.00;155754.25;4978223;28;20470;-73
2023/09/03 05:38:31;;;;;;;6.47;5.80;;;;;;;17.13;100.00;155762.06;4961207;28;20481;-73
2023/09/03 05:40:59;;;;;;;7.23;6.63;;;;;;;17.16;100.00;155769.84;4960047;28;20944;-73
2023/09/03 05:43:27;;;;;;;6.60;5.97;;;;;;;17.19;100.00;155777.66;4962277;28;20513;-73
2023/09/03 05:45:57;;;;;;;7.33;5.67;;;;;;;17.23;100.00;155788.09;4962241;28;22032;-73
2023/09/03 05:48:25;;;;;;;6.57;5.97;;;;;;;17.30;100.00;155806.28;4975028;28;20576;-72
2023/09/03 05:51:03;;;;;;;8.23;7.30;;;;;;;17.32;100.00;155812.81;4963949;28;20453;-72
2023/09/03 05:53:30;;;;;;;6.50;5.90;;;;;;;17.34;100.00;155818.00;4962273;28;20470;-73
2023/09/03 05:56:06;;;;;;;6.93;6.13;;;;;;;17.40;100.00;155832.31;4981415;28;20482;-73
2023/09/03 05:58:35;;;;;;;6.37;5.50;;;;;;;17.46;100.00;155847.94;4958752;28;20592;-73
2023/09/03 06:01:04;;;;;;;8.30;5.43;;;;;;;17.53;100.00;155867.53;4979462;28;20447;-73
2023/09/03 06:03:31;;;;;;;6.50;5.90;;;;;;;17.61;100.00;155888.34;4951502;28;20903;-73
2023/09/03 06:06:02;;;;;;;6.87;6.20;;;;;;;17.68;100.00;155905.28;4962590;28;20561;-73
2023/09/03 06:08:28;;;;;;;5.73;5.20;;;;;;;17.75;100.00;155922.19;4946103;28;20982;-73
2023/09/03 06:10:56;;;;;;;5.37;4.87;;;;;;;17.80;100.00;155935.22;4962704;28;20462;-73
2023/09/03 06:13:23;;;;;;;5.73;5.23;;;;;;;17.84;100.00;155946.97;4980693;28;20461;-73
2023/09/03 06:15:51;;;;;;;5.40;4.90;;;;;;;17.89;100.00;155958.66;4983611;28;20493;-73
2023/09/03 06:18:17;;;;;;;6.00;5.50;;;;;;;17.94;100.00;155973.00;4959236;28;20978;-73
2023/09/03 06:20:44;;;;;;;6.10;5.50;;;;;;;18.03;100.00;155996.41;4992911;28;21009;-73
2023/09/03 06:23:15;;;;;;;6.87;6.17;;;;;;;18.11;100.00;156017.25;4979535;28;20465;-73
2023/09/03 06:25:42;;;;;;;6.73;6.03;;;;;;;18.21;100.00;156043.28;4978102;28;20452;-73
2023/09/03 06:28:09;;;;;;;7.33;6.63;;;;;;;18.25;100.00;156053.72;4962237;28;20480;-73
2023/09/03 06:30:38;;;;;;;6.53;5.93;;;;;;;18.35;100.00;156077.19;4978743;28;20450;-73
2023/09/03 06:33:07;;;;;;;7.03;6.33;;;;;;;18.43;100.00;156097.97;4977168;28;20485;-73
2023/09/03 06:35:33;;;;;;;6.73;6.13;;;;;;;18.51;100.00;156118.88;4957544;28;20478;-73
2023/09/03 06:38:00;;;;;;;8.77;7.03;;;;;;;18.62;100.00;156148.84;4974622;28;20455;-73
2023/09/03 06:40:27;;;;;;;7.30;6.60;;;;;;;18.65;100.00;156155.38;4976272;28;20820;-73
2023/09/03 06:42:53;;;;;;;7.57;6.77;;;;;;;18.69;100.00;156165.81;4977394;28;20470;-73
2023/09/03 06:45:20;;;;;;;6.70;6.00;;;;;;;18.72;100.00;156174.91;4976503;28;20454;-73
2023/09/03 06:47:47;;;;;;;7.10;6.40;;;;;;;18.75;100.00;156181.41;4961677;28;20463;-73
2023/09/03 06:50:16;;;;;;;9.00;6.63;;;;;;;18.80;100.00;156194.44;4977120;28;20465;-72
2023/09/03 06:52:42;;;;;;;6.40;5.80;;;;;;;18.87;100.00;156212.72;4976455;28;20810;-71
2023/09/03 06:55:09;;;;;;;6.00;5.40;;;;;;;18.91;100.00;156221.78;4976126;28;20476;-71
2023/09/03 06:57:36;;;;;;;7.10;5.47;;;;;;;18.96;100.00;156236.13;4976817;28;20468;-72
2023/09/03 07:00:06;;;;;;;6.53;5.83;;;;;;;19.02;100.00;156250.47;4977398;28;20483;-72
2023/09/03 07:02:32;;;;;;;7.07;6.47;;;;;;;19.11;100.00;156275.25;4976437;28;20462;-72
2023/09/03 07:04:59;;;;;;;6.17;5.60;;;;;;;19.21;100.00;156301.31;4978248;28;20489;-71
2023/09/03 07:07:28;;;;;;;7.60;6.73;;;;;;;19.25;100.00;156310.41;4979394;28;21025;-72
2023/09/03 07:09:54;;;;;;;7.53;6.67;;;;;;;19.20;100.00;156298.69;4975126;28;20450;-71
2023/09/03 07:12:21;;;;;;;9.30;6.60;;;;;;;19.19;100.00;156294.81;4979179;28;20469;-72
2023/09/03 07:14:48;;;;;;;8.57;7.67;;;;;;;19.14;100.00;156283.03;4973048;28;20549;-72
2023/09/03 07:17:15;;;;;;;8.70;7.00;;;;;;;19.07;100.00;156264.81;4975155;28;20488;-73
2023/09/03 07:19:41;;;;;;;8.00;7.20;;;;;;;19.09;100.00;156270.00;4974019;28;20454;-73
2023/09/03 07:22:08;;;;;;;7.53;6.80;;;;;;;19.12;100.00;156277.84;4977865;28;20482;-73
2023/09/03 07:24:36;;;;;;;9.80;6.60;;;;;;;19.18;100.00;156293.50;4977890;28;20980;-71
2023/09/03 07:27:02;;;;;;;7.67;6.90;;;;;;;19.23;100.00;156305.19;4959180;28;20457;-71
2023/09/03 07:29:29;;;;;;;6.90;6.13;;;;;;;19.30;100.00;156323.47;4975472;28;21021;-71
2023/09/03 07:31:55;;;;;;;7.13;6.50;;;;;;;19.40;100.00;156350.91;4979132;28;20552;-71
2023/09/03 07:34:22;;;;;;;6.87;6.23;;;;;;;19.41;100.00;156353.47;4978066;28;20465;-71
2023/09/03 07:36:49;;;;;;;7.47;6.77;;;;;;;19.40;100.00;156350.91;4960934;28;20480;-71
2023/09/03 07:39:15;;;;;;;7.20;6.50;;;;;;;19.50;100.00;156374.34;4976337;28;21048;-72
2023/09/03 07:41:43;;;;;;;7.50;6.63;;;;;;;19.57;100.00;156393.88;4959994;28;20891;-72
2023/09/03 07:44:10;;;;;;;6.87;6.20;;;;;;;19.64;100.00;156410.84;4950674;28;20461;-71
2023/09/03 07:46:36;;;;;;;7.13;6.43;;;;;;;19.74;100.00;156436.91;4978071;28;20468;-72
2023/09/03 07:49:03;;;;;;;7.00;6.30;;;;;;;19.88;100.00;156474.69;4977743;28;21270;-72
2023/09/03 07:51:29;;;;;;;6.50;5.90;;;;;;;19.93;100.00;156487.78;4958631;28;20454;-75
2023/09/03 07:53:56;;;;;;;7.20;6.03;;;;;;;20.08;100.00;156525.59;4976356;28;20462;-75
2023/09/03 07:56:23;;;;;;;7.03;6.37;;;;;;;20.13;100.00;156537.31;4958275;28;20878;-75
2023/09/03 07:58:50;;;;;;;7.50;6.80;;;;;;;20.21;100.00;156558.19;4976323;28;20927;-75
2023/09/03 08:01:19;;;;;;;7.10;6.40;;;;;;;20.30;100.00;156583.03;4961371;28;20508;-75
2023/09/03 08:03:46;;;;;;;7.70;5.93;;;;;;;20.43;100.00;156616.94;4979175;28;20451;-75
2023/09/03 08:06:14;;;;;;;7.70;5.93;;;;;;;20.54;100.00;156645.59;4979343;28;20493;-76
2023/09/03 08:08:40;;;;;;;7.07;6.37;;;;;;;20.69;100.00;156682.16;4974602;28;21001;-76
2023/09/03 08:11:07;;;;;;;7.13;6.43;;;;;;;20.83;100.00;156718.69;4964710;28;20446;-75
2023/09/03 08:13:33;;;;;;;6.57;5.97;;;;;;;20.99;100.00;156761.75;4978142;28;20454;-75
2023/09/03 08:16:01;;;;;;;6.33;5.77;;;;;;;21.21;100.00;156819.22;4981761;28;20791;-75
2023/09/03 08:18:28;;;;;;;6.70;5.20;;;;;;;21.41;100.00;156870.13;4964554;28;20451;-75
2023/09/03 08:20:55;;;;;;;6.07;5.47;;;;;;;21.60;100.00;156919.75;4981851;28;20822;-75
2023/09/03 08:23:21;;;;;;;5.97;5.37;;;;;;;21.65;100.00;156932.78;4973824;28;20544;-75
2023/09/03 08:25:48;;;;;;;5.10;4.70;;;;;;;21.75;99.92;156958.91;4978818;28;20469;-75
2023/09/03 08:28:14;;;;;;;6.30;5.70;;;;;;;21.82;99.48;156977.16;4978314;28;20986;-75
2023/09/03 08:30:41;;;;;;;6.20;5.60;;;;;;;21.87;98.40;156987.69;4983247;28;20456;-75
2023/09/03 08:33:09;;;;;;;6.10;5.13;;;;;;;21.90;99.02;156995.47;4980056;28;20478;-75
2023/09/03 08:35:36;;;;;;;6.20;5.60;;;;;;;21.90;98.26;156995.47;4980277;28;20461;-75
2023/09/03 08:38:04;;;;;;;6.00;5.40;;;;;;;21.94;98.23;157005.94;4980655;28;20460;-75
2023/09/03 08:40:32;;;;;;;5.67;5.17;;;;;;;22.10;99.17;157047.72;4965245;28;20464;-75
2023/09/03 08:42:59;;;;;;;6.10;5.50;;;;;;;22.26;98.00;157090.84;4982720;28;20461;-75
2023/09/03 08:45:28;;;;;;;6.10;5.60;;;;;;;22.35;96.74;157113.00;4981171;28;20457;-75
2023/09/03 08:47:55;;;;;;;5.93;5.17;;;;;;;22.46;96.63;157141.75;4961237;28;20469;-75
2023/09/03 08:50:24;;;;;;;5.80;5.27;;;;;;;22.59;95.42;157175.72;4961713;28;21806;-75
2023/09/03 08:52:53;;;;;;;7.13;5.50;;;;;;;22.70;95.54;157204.50;4981691;28;20878;-74
2023/09/03 08:55:20;;;;;;;6.50;5.77;;;;;;;22.83;94.97;157238.47;4978026;28;20460;-75
2023/09/03 08:57:46;;;;;;;5.07;4.60;;;;;;;22.88;92.34;157251.53;4979712;28;20493;-75
2023/09/03 09:00:15;;;;;;;5.60;5.10;;;;;;;22.82;94.22;157235.84;4977996;28;20465;-75
2023/09/03 09:02:43;;;;;;;6.47;4.87;;;;;;;22.93;93.58;157264.59;4975445;28;20454;-75
2023/09/03 09:05:10;;;;;;;5.77;5.03;;;;;;;22.97;94.17;157273.75;4979796;28;20494;-75
2023/09/03 09:07:38;;;;;;;4.80;4.40;;;;;;;23.06;93.36;157296.00;4981043;28;20481;-75
2023/09/03 09:10:07;;;;;;;5.00;4.50;;;;;;;23.12;90.89;157311.63;4962732;28;21001;-75
2023/09/03 09:12:37;;;;;;;6.40;4.77;;;;;;;23.13;89.73;157314.28;4980423;28;20467;-76
2023/09/03 09:15:05;;;;;;;5.00;4.57;;;;;;;23.22;89.98;157339.06;4979000;28;20449;-76
2023/09/03 09:17:37;;;;;;;5.37;4.87;;;;;;;23.24;89.65;157343.03;4977888;28;20489;-76
2023/09/03 09:20:04;;;;;;;5.73;5.13;;;;;;;23.13;89.14;157314.28;4976523;28;20461;-75
2023/09/03 09:22:31;;;;;;;6.80;5.03;;;;;;;23.02;89.90;157288.16;4961375;28;20465;-76
2023/09/03 09:24:58;;;;;;;6.13;4.90;;;;;;;23.04;90.09;157293.34;4977169;28;20458;-76
2023/09/03 09:27:25;;;;;;;5.17;4.47;;;;;;;23.08;89.86;157301.22;4976109;28;20459;-76
2023/09/03 09:29:52;;;;;;;5.77;4.90;;;;;;;23.21;89.08;157335.19;4978963;28;20458;-76
2023/09/03 09:32:20;;;;;;;5.93;4.70;;;;;;;23.33;88.65;157367.84;4981216;28;20461;-76
2023/09/03 09:34:46;;;;;;;7.30;5.20;;;;;;;23.41;88.06;157387.50;4977932;28;20878;-76
2023/09/03 09:37:14;;;;;;;5.10;4.20;;;;;;;23.46;86.22;157400.56;4977411;28;20478;-76
2023/09/03 09:39:45;;;;;;;3.83;3.43;;;;;;;23.32;83.74;157363.94;4960168;28;20492;-76
2023/09/03 09:42:14;;;;;;;4.50;4.10;;;;;;;23.20;84.88;157333.88;4962888;28;21029;-76
2023/09/03 09:44:56;;;;;;;4.80;4.30;;;;;;;23.23;84.59;157340.41;4977279;28;20454;-76
2023/09/03 09:47:22;;;;;;;3.63;2.97;;;;;;;23.15;81.94;157320.81;4963160;28;20473;-76
2023/09/03 09:49:49;;;;;;;3.77;3.27;;;;;;;23.15;83.37;157319.47;4979765;28;20485;-76
2023/09/03 09:52:16;;;;;;;4.70;4.30;;;;;;;23.11;83.88;157310.38;4961973;28;20468;-76
2023/09/03 09:54:44;;;;;;;5.07;3.90;;;;;;;23.13;84.45;157314.28;4977031;28;21015;-76
2023/09/03 09:57:13;;;;;;;4.40;4.00;;;;;;;23.24;83.92;157343.03;4960347;28;20481;-77
2023/09/03 09:59:39;;;;;;;4.40;4.00;;;;;;;23.32;84.52;157365.25;4960814;28;20453;-76
2023/09/03 10:02:13;;;;;;;4.00;3.70;;;;;;;23.40;84.17;157384.91;4952519;28;20450;-76
2023/09/03 10:04:43;;;;;;;4.80;4.40;;;;;;;23.47;84.41;157403.19;4976286;28;20504;-76
2023/09/03 10:07:11;;;;;;;4.60;3.53;;;;;;;23.46;84.50;157401.88;4977126;28;20469;-76
2023/09/03 10:09:39;;;;;;;3.93;3.53;;;;;;;23.54;84.13;157421.47;4960154;28;20449;-78
2023/09/03 10:12:06;;;;;;;3.80;3.40;;;;;;;23.54;83.55;157421.47;4960942;28;20454;-76
2023/09/03 10:14:34;;;;;;;4.00;3.67;;;;;;;23.60;83.40;157437.16;4993495;28;20461;-76
2023/09/03 10:17:03;;;;;;;3.57;3.27;;;;;;;23.58;82.65;157433.28;4982336;28;21159;-75
2023/09/03 10:19:41;;;;;;;4.10;3.50;;;;;;;23.71;82.49;157465.94;4973580;28;20442;-76
2023/09/03 10:22:11;;;;;;;3.67;3.37;;;;;;;23.60;81.21;157437.16;4978730;28;20553;-76
2023/09/03 10:24:38;;;;;;;3.53;2.43;;;;;;;23.57;79.57;157429.31;4962204;28;20462;-76
2023/09/03 10:27:05;;;;;;;3.33;3.03;;;;;;;23.50;79.62;157412.34;4988161;28;20507;-76
2023/09/03 10:29:36;;;;;;;3.70;2.97;;;;;;;23.47;81.00;157404.50;4973467;28;20459;-76
2023/09/03 10:32:07;;;;;;;3.10;2.80;;;;;;;23.53;79.25;157418.88;4976693;28;20458;-75
2023/09/03 10:34:36;;;;;;;2.30;1.90;;;;;;;23.52;77.92;157416.25;4978539;28;20529;-75
2023/09/03 10:37:05;;;;;;;2.90;1.93;;;;;;;23.53;75.60;157420.22;4976157;28;20485;-75
2023/09/03 10:39:32;;;;;;;2.90;2.37;;;;;;;23.48;75.67;157407.09;4974345;28;20994;-76
2023/09/03 10:42:26;;;;;;;2.07;1.87;;;;;;;23.42;74.31;157391.44;4977291;28;20460;-75
2023/09/03 10:44:55;;;;;;;2.17;1.93;;;;;;;23.47;74.06;157403.19;4967699;28;20472;-75
2023/09/03 10:47:22;;;;;;;3.10;2.80;;;;;;;23.46;75.09;157401.88;4975730;28;20450;-75
2023/09/03 10:49:50;;;;;;;3.13;2.50;;;;;;;23.42;77.03;157390.13;4954719;28;20461;-75
2023/09/03 10:52:37;;;;;;;2.83;2.27;;;;;;;23.42;75.53;157390.13;4960894;28;20545;-75
2023/09/03 10:55:10;;;;;;;2.63;2.20;;;;;;;23.61;76.05;157439.81;4974055;28;20461;-75
2023/09/03 10:57:36;;;;;;;2.60;2.10;;;;;;;23.74;73.46;157473.78;4975033;28;20485;-75
2023/09/03 11:00:13;;;;;;;2.33;2.13;;;;;;;23.70;73.97;157462.00;4961501;28;20453;-75
2023/09/03 11:02:40;;;;;;;2.90;2.70;;;;;;;23.73;75.77;157469.84;4958826;28;21909;-75
2023/09/03 11:05:19;;;;;;;2.73;2.53;;;;;;;23.81;77.18;157492.06;4975511;28;20477;-75
2023/09/03 11:07:47;;;;;;;3.90;3.10;;;;;;;23.84;76.35;157498.63;4975210;28;20480;-75
2023/09/03 11:10:39;;;;;;;3.20;2.47;;;;;;;23.76;75.82;157479.00;4975174;28;20478;-75
2023/09/03 11:13:09;;;;;;;2.90;2.63;;;;;;;23.73;75.78;157469.84;4977010;28;20460;-76
2023/09/03 11:15:40;;;;;;;2.37;2.10;;;;;;;23.74;73.76;157473.78;4977011;28;20798;-76
2023/09/03 11:18:06;;;;;;;2.30;2.07;;;;;;;23.68;73.45;157458.09;4944614;28;20477;-76
2023/09/03 11:20:34;;;;;;;2.30;1.87;;;;;;;23.65;71.38;157450.25;4977068;28;20446;-76
2023/09/03 11:23:02;;;;;;;2.13;1.93;;;;;;;23.62;74.36;157442.38;4974350;28;20465;-76